Time;durP1;ratioP1;P1;durP2;ratioP2;P2;SDS_P1;SDS_P2;PMS_P1;PMS_P2;Temp;Humidity;BMP_temperature;BMP_pressure;BME280_temperature;BME280_humidity;BME280_pressure;Samples;Min_cycle;Max_cycle;Signal;HPM_P1;HPM_P2
2020/12/20 00:01:14;;;;;;;3.73;1.47;;;7.40;99.90;;;;;;5015759;28;20194;-93
2020/12/20 00:03:54;;;;;;;2.10;1.10;;;7.40;99.90;;;;;;5014765;28;20199;-94
2020/12/20 00:06:25;;;;;;;3.73;1.33;;;7.50;99.90;;;;;;4997608;28;20203;-92
2020/12/20 00:08:55;;;;;;;2.17;1.00;;;7.50;99.90;;;;;;4996839;28;20210;-91
2020/12/20 00:11:27;;;;;;;2.83;1.10;;;7.60;99.90;;;;;;5012155;28;20309;-92
2020/12/20 00:14:00;;;;;;;1.87;0.60;;;7.70;99.90;;;;;;5027802;28;20222;-92
2020/12/20 00:16:38;;;;;;;2.13;0.80;;;7.80;99.90;;;;;;5009997;28;20241;-93
2020/12/20 00:19:11;;;;;;;1.20;0.60;;;7.80;99.90;;;;;;4998476;28;20230;-92
2020/12/20 00:21:42;;;;;;;1.40;0.90;;;7.90;99.90;;;;;;5014215;28;20278;-92
2020/12/20 00:24:13;;;;;;;1.80;0.70;;;8.00;99.90;;;;;;5014163;28;20195;-94
2020/12/20 00:26:47;;;;;;;1.57;0.50;;;8.00;99.90;;;;;;5010364;28;20197;-94
2020/12/20 00:29:18;;;;;;;1.53;0.60;;;8.00;99.90;;;;;;5011655;28;20207;-93
2020/12/20 00:31:49;;;;;;;1.53;0.70;;;8.00;99.90;;;;;;5007249;28;20707;-93
2020/12/20 00:34:21;;;;;;;1.27;0.83;;;8.00;99.90;;;;;;5007245;28;20207;-95
2020/12/20 00:36:54;;;;;;;1.20;0.60;;;8.10;99.90;;;;;;5007102;28;20216;-94
2020/12/20 00:39:26;;;;;;;2.57;0.87;;;8.10;99.90;;;;;;5007635;28;20222;-94
2020/12/20 00:41:58;;;;;;;0.70;0.70;;;8.10;99.90;;;;;;5007300;28;20235;-92
2020/12/20 00:44:30;;;;;;;1.77;0.90;;;8.00;99.90;;;;;;5007213;28;20571;-94
2020/12/20 00:47:10;;;;;;;2.03;0.87;;;8.00;99.90;;;;;;4998601;28;20225;-96
2020/12/20 00:49:45;;;;;;;1.30;0.80;;;7.90;99.90;;;;;;5006415;28;20648;-93
2020/12/20 00:52:18;;;;;;;2.63;1.00;;;7.90;99.90;;;;;;5007808;28;20240;-94
2020/12/20 00:54:48;;;;;;;2.40;1.10;;;7.90;99.90;;;;;;5007441;28;20217;-93
2020/12/20 00:57:19;;;;;;;2.07;1.00;;;7.90;99.90;;;;;;5006555;28;20210;-94
2020/12/20 00:59:50;;;;;;;1.47;0.60;;;7.90;99.90;;;;;;5017097;28;20230;-93
2020/12/20 01:02:25;;;;;;;2.40;0.97;;;7.90;99.90;;;;;;4996780;28;20226;-92
2020/12/20 01:05:12;;;;;;;1.53;1.10;;;8.00;99.90;;;;;;5006160;28;20230;-90
2020/12/20 01:07:45;;;;;;;1.83;1.17;;;8.00;99.90;;;;;;5008053;28;20273;-93
2020/12/20 01:10:20;;;;;;;2.83;1.00;;;8.00;99.90;;;;;;5009134;28;20241;-91
2020/12/20 01:12:52;;;;;;;1.83;0.73;;;8.00;99.90;;;;;;4658555;28;10000496;-93
2020/12/20 01:15:29;;;;;;;1.67;1.30;;;8.10;99.90;;;;;;5008747;28;20268;-94
2020/12/20 01:18:06;;;;;;;1.10;0.70;;;8.10;99.90;;;;;;5029219;28;20224;-96
2020/12/20 01:23:43;;;;;;;2.00;1.00;;;8.20;99.90;;;;;;5097249;22;20791;-94
2020/12/20 01:26:15;;;;;;;2.43;0.90;;;8.20;99.90;;;;;;5055180;28;20219;-95
2020/12/20 01:28:46;;;;;;;1.93;0.77;;;8.30;99.90;;;;;;5043032;28;20651;-94
2020/12/20 01:31:17;;;;;;;1.30;1.03;;;8.30;99.90;;;;;;5047280;28;20208;-95
2020/12/20 01:33:48;;;;;;;0.83;0.80;;;8.30;99.90;;;;;;5030659;28;20263;-95
2020/12/20 01:39:48;;;;;;;1.37;0.90;;;8.30;99.90;;;;;;5056625;28;20310;-96
2020/12/20 01:42:23;;;;;;;1.43;0.90;;;8.30;99.90;;;;;;5042765;28;20220;-95
2020/12/20 01:44:55;;;;;;;2.17;0.90;;;8.20;99.90;;;;;;5064175;28;20219;-95
2020/12/20 01:47:37;;;;;;;0.90;0.83;;;8.20;99.90;;;;;;5043192;28;20212;-94
2020/12/20 01:50:13;;;;;;;1.47;0.93;;;8.20;99.90;;;;;;5045520;28;20758;-92
2020/12/20 01:52:45;;;;;;;1.43;0.80;;;8.20;99.90;;;;;;5040979;28;20300;-93
2020/12/20 01:55:23;;;;;;;1.67;0.87;;;8.20;99.90;;;;;;5038013;28;20208;-94
2020/12/20 01:57:56;;;;;;;0.97;0.80;;;8.20;99.90;;;;;;5060206;28;20200;-93
2020/12/20 02:00:26;;;;;;;1.10;0.70;;;8.20;99.90;;;;;;5046814;28;20231;-96
2020/12/20 02:05:29;;;;;;;1.17;0.70;;;8.30;99.90;;;;;;5048643;28;20233;-96
2020/12/20 02:08:00;;;;;;;1.13;0.63;;;8.30;99.90;;;;;;5046635;28;20238;-96
2020/12/20 02:10:33;;;;;;;0.83;0.50;;;8.40;99.90;;;;;;5035419;28;20233;-96
2020/12/20 02:13:08;;;;;;;1.10;0.60;;;8.40;99.90;;;;;;5033383;28;20209;-96
2020/12/20 02:15:39;;;;;;;0.90;0.60;;;8.40;99.90;;;;;;5045865;28;20212;-96
2020/12/20 02:18:12;;;;;;;0.67;0.50;;;8.30;99.90;;;;;;5089099;22;20218;-96
2020/12/20 02:20:49;;;;;;;0.70;0.50;;;8.40;99.90;;;;;;5046228;28;20208;-96
2020/12/20 02:23:26;;;;;;;1.33;0.53;;;8.40;99.90;;;;;;5030609;28;20299;-96
2020/12/20 02:25:58;;;;;;;0.63;0.50;;;8.30;99.90;;;;;;5046212;28;20269;-96
2020/12/20 02:28:28;;;;;;;0.87;0.37;;;8.40;99.90;;;;;;5035286;28;20185;-96
2020/12/20 02:33:47;;;;;;;1.03;0.50;;;8.30;99.90;;;;;;5046619;28;20231;-96
2020/12/20 02:36:21;;;;;;;0.63;0.63;;;8.30;99.90;;;;;;5037034;28;20216;-96
2020/12/20 02:38:57;;;;;;;0.50;0.40;;;8.30;99.90;;;;;;5053851;28;20212;-96
2020/12/20 02:44:24;;;;;;;0.50;0.50;;;8.20;99.90;;;;;;5047355;28;20196;-96
2020/12/20 02:47:11;;;;;;;1.30;0.40;;;8.10;99.90;;;;;;5099744;22;20259;-95
2020/12/20 02:49:50;;;;;;;4.53;1.60;;;8.10;99.90;;;;;;5054336;28;20234;-96
2020/12/20 02:52:21;;;;;;;3.50;0.70;;;8.10;99.90;;;;;;5047637;28;20189;-95
2020/12/20 02:57:55;;;;;;;1.90;1.10;;;8.10;99.90;;;;;;5066536;28;20184;-96
2020/12/20 03:03:12;;;;;;;3.17;0.60;;;8.00;99.90;;;;;;5057937;28;20220;-96
2020/12/20 03:05:48;;;;;;;0.87;0.70;;;8.00;99.90;;;;;;5057889;28;20231;-94
2020/12/20 03:11:46;;;;;;;0.73;0.50;;;8.00;99.90;;;;;;5075511;28;20181;-95
2020/12/20 03:21:52;;;;;;;1.67;0.90;;;8.10;99.90;;;;;;5058673;28;20641;-96
2020/12/20 03:24:25;;;;;;;3.03;0.70;;;8.00;99.90;;;;;;5070193;28;20204;-96
2020/12/20 04:00:22;;;;;;;1.07;0.77;;;8.10;99.90;;;;;;5068715;28;20220;-95
2020/12/20 04:02:56;;;;;;;1.73;0.97;;;8.10;99.90;;;;;;5062949;28;20209;-94
2020/12/20 04:05:27;;;;;;;1.83;1.00;;;8.10;99.90;;;;;;5039601;28;20208;-95
2020/12/20 04:07:59;;;;;;;1.10;0.97;;;8.10;99.90;;;;;;5066366;28;20236;-96
2020/12/20 04:10:30;;;;;;;1.27;1.03;;;8.10;99.90;;;;;;5061736;28;20227;-93
2020/12/20 04:16:06;;;;;;;2.10;0.90;;;8.10;99.90;;;;;;5056741;28;20362;-96
2020/12/20 04:18:41;;;;;;;1.07;0.97;;;8.10;99.90;;;;;;5050358;28;20240;-96
2020/12/20 04:21:33;;;;;;;1.00;0.90;;;8.10;99.90;;;;;;5062915;28;20224;-95
2020/12/20 04:24:05;;;;;;;1.10;0.80;;;8.10;99.90;;;;;;5056163;28;20203;-95
2020/12/20 04:26:38;;;;;;;1.33;0.83;;;8.10;99.90;;;;;;5057150;28;20280;-94
2020/12/20 04:29:08;;;;;;;0.60;0.60;;;8.10;99.90;;;;;;5050041;28;20230;-95
2020/12/20 04:31:39;;;;;;;0.67;0.60;;;8.20;99.90;;;;;;5062714;28;20250;-95
2020/12/20 04:34:12;;;;;;;1.07;0.60;;;8.20;99.90;;;;;;5050208;28;20227;-94
2020/12/20 04:36:45;;;;;;;1.97;0.67;;;8.20;99.90;;;;;;5042971;28;20217;-95
2020/12/20 04:39:16;;;;;;;0.70;0.60;;;8.20;99.90;;;;;;5066670;28;20235;-94
2020/12/20 04:41:50;;;;;;;1.10;0.60;;;8.20;99.90;;;;;;5067185;28;20230;-96
2020/12/20 04:44:20;;;;;;;0.97;0.70;;;8.30;99.90;;;;;;5069225;28;20285;-94
2020/12/20 04:46:55;;;;;;;1.07;0.70;;;8.30;99.90;;;;;;5063564;28;20790;-95
2020/12/20 04:49:31;;;;;;;2.40;1.00;;;8.30;99.90;;;;;;5068562;28;20655;-95
2020/12/20 04:52:04;;;;;;;1.47;0.80;;;8.30;99.90;;;;;;5059551;28;20192;-94
2020/12/20 04:54:40;;;;;;;0.90;0.70;;;8.30;99.90;;;;;;5066226;28;20206;-93
2020/12/20 04:59:54;;;;;;;1.67;0.80;;;8.40;99.90;;;;;;5390362;22;20244;-94
2020/12/20 05:02:25;;;;;;;0.70;0.50;;;8.40;99.90;;;;;;5060499;28;20212;-96
2020/12/20 05:04:58;;;;;;;2.53;0.80;;;8.40;99.90;;;;;;5047369;28;20218;-96
2020/12/20 05:07:30;;;;;;;0.80;0.80;;;8.40;99.90;;;;;;5055472;28;20208;-95
2020/12/20 05:10:03;;;;;;;1.00;0.70;;;8.40;99.90;;;;;;5055609;28;20228;-93
2020/12/20 05:12:35;;;;;;;1.20;1.10;;;8.40;99.90;;;;;;5065455;28;20203;-92
2020/12/20 05:15:21;;;;;;;1.87;0.87;;;8.50;99.90;;;;;;5056727;28;20218;-95
2020/12/20 05:18:30;;;;;;;1.90;1.00;;;8.60;99.90;;;;;;5065777;28;20194;-96
2020/12/20 05:21:26;;;;;;;1.57;0.77;;;8.60;99.90;;;;;;5059963;28;20228;-94
2020/12/20 05:23:58;;;;;;;0.77;0.77;;;8.60;99.90;;;;;;5055087;28;20211;-94
2020/12/20 05:26:30;;;;;;;1.90;1.00;;;8.70;99.90;;;;;;5064931;28;20243;-93
2020/12/20 05:32:15;;;;;;;0.80;0.80;;;8.70;99.90;;;;;;5059241;28;20221;-94
2020/12/20 05:35:07;;;;;;;1.20;1.00;;;8.80;99.90;;;;;;5072067;28;20208;-94
2020/12/20 05:37:41;;;;;;;1.97;1.20;;;8.80;99.90;;;;;;5066851;28;20262;-96
2020/12/20 05:40:24;;;;;;;1.57;1.00;;;8.80;99.90;;;;;;5061807;28;20294;-94
2020/12/20 05:46:07;;;;;;;2.47;1.10;;;8.90;99.90;;;;;;5057677;28;20211;-95
2020/12/20 05:48:44;;;;;;;1.37;1.27;;;8.90;99.90;;;;;;5062831;28;20214;-93
2020/12/20 05:51:17;;;;;;;2.50;1.27;;;8.90;99.90;;;;;;5065824;28;20198;-92
2020/12/20 05:54:15;;;;;;;2.50;1.33;;;9.00;99.90;;;;;;5060620;28;20211;-94
2020/12/20 05:56:47;;;;;;;3.97;1.60;;;9.10;99.90;;;;;;5063134;28;20231;-94
2020/12/20 05:59:19;;;;;;;3.43;1.10;;;9.10;99.90;;;;;;5059344;28;20347;-94
2020/12/20 06:02:06;;;;;;;2.53;1.47;;;9.30;99.90;;;;;;5056031;28;20659;-96
2020/12/20 06:07:41;;;;;;;2.40;1.40;;;9.30;99.90;;;;;;5053326;28;20207;-96
2020/12/20 06:10:15;;;;;;;1.80;1.40;;;9.40;99.90;;;;;;5065198;28;20215;-95
2020/12/20 06:12:51;;;;;;;2.20;1.50;;;9.40;99.90;;;;;;5061563;28;20208;-96
2020/12/20 06:15:33;;;;;;;1.43;1.33;;;9.40;99.90;;;;;;5053392;28;20212;-94
2020/12/20 06:18:16;;;;;;;1.57;1.47;;;9.40;99.90;;;;;;5060179;28;20208;-93
2020/12/20 06:20:55;;;;;;;1.90;1.60;;;9.50;99.90;;;;;;5062810;28;20299;-93
2020/12/20 06:23:31;;;;;;;1.40;1.30;;;9.50;99.90;;;;;;5063153;28;20204;-96
2020/12/20 06:26:07;;;;;;;1.57;1.47;;;9.60;99.90;;;;;;5057719;28;20214;-96
2020/12/20 06:28:45;;;;;;;2.13;1.50;;;9.60;99.90;;;;;;5064843;28;20207;-96
2020/12/20 06:45:16;;;;;;;2.00;1.70;;;9.90;99.90;;;;;;5231923;22;20255;-91
2020/12/20 06:47:47;;;;;;;2.90;2.00;;;9.90;99.90;;;;;;5079410;28;20261;-93
2020/12/20 06:50:49;;;;;;;2.57;1.60;;;9.90;99.90;;;;;;5085297;28;20214;-91
2020/12/20 06:53:23;;;;;;;1.70;1.60;;;10.00;99.90;;;;;;5085057;28;20207;-93
2020/12/20 06:56:21;;;;;;;2.07;1.50;;;10.00;99.90;;;;;;5091574;28;20199;-91
2020/12/20 06:59:01;;;;;;;1.47;1.37;;;10.10;99.90;;;;;;5095216;28;20249;-90
2020/12/20 07:01:49;;;;;;;1.03;1.00;;;10.20;99.90;;;;;;5304407;22;20242;-94
2020/12/20 07:38:15;;;;;;;0.40;0.33;;;10.80;99.90;;;;;;4981862;28;20211;-94
2020/12/20 07:41:24;;;;;;;0.60;0.40;;;10.90;99.90;;;;;;4986406;28;20304;-93
2020/12/20 07:44:16;;;;;;;1.77;0.30;;;10.90;99.90;;;;;;4991425;28;20199;-95
2020/12/20 07:47:21;;;;;;;0.53;0.40;;;11.00;99.90;;;;;;4997055;28;20195;-94
2020/12/20 07:49:59;;;;;;;0.93;0.53;;;11.20;99.90;;;;;;4984599;28;20204;-94
2020/12/20 07:52:36;;;;;;;1.13;0.50;;;11.10;99.90;;;;;;4995986;28;20203;-94
2020/12/20 07:58:12;;;;;;;0.83;0.50;;;11.10;99.90;;;;;;4996161;28;20206;-94
2020/12/20 08:04:33;;;;;;;0.63;0.40;;;11.20;99.90;;;;;;4991951;28;20266;-94
2020/12/20 08:12:46;;;;;;;0.57;0.47;;;11.30;99.90;;;;;;5127167;22;20215;-94
2020/12/20 08:15:20;;;;;;;0.40;0.40;;;11.30;99.90;;;;;;5076817;28;20272;-94
2020/12/20 08:24:19;;;;;;;0.30;0.30;;;11.40;99.90;;;;;;5073628;28;20280;-95
2020/12/20 08:27:03;;;;;;;0.30;0.30;;;11.40;99.90;;;;;;5056679;28;20204;-95
2020/12/20 08:33:38;;;;;;;0.30;0.30;;;11.60;99.90;;;;;;5063371;28;20204;-94
2020/12/20 08:36:24;;;;;;;0.47;0.30;;;11.50;99.90;;;;;;5050640;28;20208;-94
2020/12/20 08:39:08;;;;;;;0.30;0.30;;;11.50;99.90;;;;;;5070591;28;20370;-95
2020/12/20 08:41:43;;;;;;;1.50;0.40;;;11.50;99.90;;;;;;5052169;28;20197;-93
2020/12/20 08:44:39;;;;;;;1.00;0.40;;;11.50;99.90;;;;;;5074395;28;20267;-95
2020/12/20 08:47:39;;;;;;;0.60;0.30;;;11.50;99.90;;;;;;5073955;28;20211;-94
2020/12/20 08:50:20;;;;;;;1.13;0.30;;;11.50;99.90;;;;;;5064192;28;20248;-94
2020/12/20 08:53:01;;;;;;;0.20;0.20;;;11.50;99.90;;;;;;5072739;28;20221;-94
2020/12/20 08:55:34;;;;;;;0.20;0.20;;;11.60;99.90;;;;;;5073801;28;20545;-94
2020/12/20 09:01:09;;;;;;;0.40;0.37;;;11.60;99.90;;;;;;5071645;28;20258;-93
2020/12/20 09:03:57;;;;;;;0.73;0.40;;;11.60;99.90;;;;;;5074835;28;20203;-93
2020/12/20 09:06:37;;;;;;;0.30;0.30;;;11.60;99.90;;;;;;5073778;28;20236;-93
2020/12/20 09:09:26;;;;;;;0.30;0.30;;;11.60;99.90;;;;;;5064726;28;20649;-94
2020/12/20 09:18:25;;;;;;;0.20;0.20;;;11.50;99.90;;;;;;5053922;28;20224;-93
2020/12/20 09:21:30;;;;;;;0.80;0.27;;;11.50;99.90;;;;;;5050157;28;20239;-93
2020/12/20 09:24:17;;;;;;;0.30;0.30;;;11.50;99.90;;;;;;5067179;28;20204;-94
2020/12/20 09:29:54;;;;;;;0.40;0.20;;;11.60;99.90;;;;;;5051422;28;20208;-94
2020/12/20 09:35:20;;;;;;;0.43;0.30;;;11.60;99.90;;;;;;5063700;28;20235;-94
2020/12/20 09:37:52;;;;;;;0.83;0.40;;;11.50;99.90;;;;;;5070564;28;20235;-93
2020/12/20 09:40:25;;;;;;;0.50;0.30;;;11.60;99.90;;;;;;5072697;28;20297;-94
2020/12/20 09:42:55;;;;;;;0.33;0.33;;;11.60;99.90;;;;;;5075341;28;20211;-94
2020/12/20 09:45:26;;;;;;;0.30;0.30;;;11.70;99.90;;;;;;5074253;28;20223;-92
2020/12/20 09:47:59;;;;;;;1.00;0.27;;;11.70;99.90;;;;;;5072589;28;20204;-92
2020/12/20 09:50:38;;;;;;;0.30;0.30;;;11.60;99.90;;;;;;5066863;28;20208;-93
2020/12/20 09:53:11;;;;;;;0.57;0.20;;;11.60;99.90;;;;;;5056639;28;20200;-94
2020/12/20 09:55:43;;;;;;;1.13;0.30;;;11.70;99.90;;;;;;5052962;28;20200;-93
2020/12/20 09:58:15;;;;;;;0.20;0.20;;;11.60;99.90;;;;;;5062683;28;20331;-93
2020/12/20 10:00:47;;;;;;;0.20;0.20;;;11.60;99.90;;;;;;5053669;28;20239;-94
2020/12/20 10:03:18;;;;;;;1.13;0.30;;;11.60;99.90;;;;;;5061722;28;20204;-94
2020/12/20 10:05:49;;;;;;;1.00;0.37;;;11.60;99.90;;;;;;5070947;28;20208;-95
2020/12/20 10:08:22;;;;;;;0.40;0.20;;;11.70;99.90;;;;;;5057474;28;20205;-92
2020/12/20 10:11:02;;;;;;;0.27;0.23;;;11.70;99.90;;;;;;5050388;28;20205;-92
2020/12/20 10:13:35;;;;;;;0.20;0.20;;;11.70;99.90;;;;;;5049973;28;20224;-93
2020/12/20 10:16:05;;;;;;;0.30;0.20;;;11.70;99.90;;;;;;5059518;28;20212;-93
2020/12/20 10:18:40;;;;;;;0.47;0.30;;;11.70;99.90;;;;;;5059147;28;20246;-92
2020/12/20 10:21:19;;;;;;;0.20;0.20;;;11.80;99.90;;;;;;5067776;28;20243;-93
2020/12/20 10:23:54;;;;;;;0.50;0.20;;;11.80;99.90;;;;;;5059510;28;20211;-94
2020/12/20 10:26:26;;;;;;;0.20;0.20;;;11.80;99.90;;;;;;5050052;28;20208;-93
2020/12/20 10:29:05;;;;;;;0.20;0.20;;;11.70;99.90;;;;;;5066212;28;20208;-93
2020/12/20 10:31:39;;;;;;;0.50;0.30;;;11.70;99.90;;;;;;5068472;28;20203;-93
2020/12/20 10:34:13;;;;;;;0.47;0.30;;;11.70;99.90;;;;;;5046727;28;20227;-93
2020/12/20 10:36:44;;;;;;;0.67;0.20;;;11.70;99.90;;;;;;5069230;28;20184;-92
2020/12/20 10:42:04;;;;;;;0.40;0.20;;;11.80;99.90;;;;;;5067943;28;20212;-93
2020/12/20 10:44:51;;;;;;;0.33;0.30;;;11.70;99.90;;;;;;5047893;28;20333;-93
2020/12/20 10:47:25;;;;;;;0.87;0.30;;;11.70;99.90;;;;;;5047960;28;20231;-94
2020/12/20 10:49:56;;;;;;;0.20;0.13;;;11.80;99.90;;;;;;5048770;28;20224;-93
2020/12/20 10:58:03;;;;;;;0.33;0.10;;;11.70;99.90;;;;;;5025723;28;20259;-93
2020/12/20 11:00:38;;;;;;;0.23;0.13;;;11.80;99.90;;;;;;5028055;28;20241;-94
2020/12/20 11:03:09;;;;;;;0.27;0.20;;;11.70;99.90;;;;;;5029066;28;20205;-94
2020/12/20 11:05:41;;;;;;;0.20;0.20;;;11.70;99.90;;;;;;5029088;28;20209;-93
2020/12/20 11:08:15;;;;;;;1.17;0.20;;;11.70;99.90;;;;;;5012443;28;20311;-93
2020/12/20 11:10:46;;;;;;;0.87;0.17;;;11.70;99.90;;;;;;5030894;28;20241;-93
2020/12/20 11:13:19;;;;;;;0.57;0.30;;;11.60;99.90;;;;;;5028812;28;20229;-94
2020/12/20 11:15:58;;;;;;;0.60;0.20;;;11.50;99.90;;;;;;5030778;28;20237;-93
2020/12/20 11:18:31;;;;;;;0.50;0.20;;;11.60;99.90;;;;;;5032189;28;20214;-93
2020/12/20 11:21:06;;;;;;;0.40;0.23;;;11.60;99.90;;;;;;5033423;28;20248;-94
2020/12/20 11:23:45;;;;;;;0.30;0.20;;;11.60;99.90;;;;;;5032590;28;20213;-94
2020/12/20 11:26:17;;;;;;;1.40;0.40;;;11.50;99.90;;;;;;5030550;28;20209;-93
2020/12/20 11:28:54;;;;;;;1.43;0.30;;;11.50;99.90;;;;;;5032032;28;20205;-94
2020/12/20 11:34:13;;;;;;;1.67;0.53;;;11.50;99.90;;;;;;5032693;28;20218;-94
2020/12/20 11:36:57;;;;;;;3.80;0.70;;;11.40;99.90;;;;;;5032071;28;20202;-93
2020/12/20 11:39:34;;;;;;;3.07;0.50;;;11.40;99.90;;;;;;5033566;28;20218;-94
2020/12/20 11:42:07;;;;;;;2.30;0.40;;;11.40;99.90;;;;;;5032392;28;20240;-94
2020/12/20 11:44:47;;;;;;;5.13;0.63;;;11.40;99.90;;;;;;5024942;28;20220;-93
2020/12/20 11:47:18;;;;;;;6.47;0.87;;;11.30;99.90;;;;;;5041675;28;20217;-93
2020/12/20 11:50:04;;;;;;;3.77;0.80;;;11.30;99.90;;;;;;5032057;28;20632;-94
2020/12/20 11:52:37;;;;;;;2.97;0.80;;;11.30;99.90;;;;;;5031089;28;20613;-94
2020/12/20 11:55:09;;;;;;;4.27;0.90;;;11.20;99.90;;;;;;5021026;28;20274;-94
2020/12/20 11:57:39;;;;;;;3.37;0.90;;;11.10;99.90;;;;;;5030924;28;20222;-94
2020/12/20 12:00:11;;;;;;;7.57;1.10;;;11.10;99.90;;;;;;5021171;28;20256;-96
2020/12/20 12:02:43;;;;;;;6.50;0.90;;;11.10;99.90;;;;;;5038054;28;20221;-93
2020/12/20 12:05:14;;;;;;;4.53;1.03;;;11.10;99.90;;;;;;5032173;28;20274;-95
2020/12/20 12:07:58;;;;;;;4.63;1.07;;;11.10;99.90;;;;;;5031611;28;20269;-94
2020/12/20 12:10:29;;;;;;;3.77;1.17;;;11.10;99.90;;;;;;5032170;28;20217;-94
2020/12/20 12:13:01;;;;;;;6.13;1.10;;;11.00;99.90;;;;;;5014756;28;20209;-94
2020/12/20 12:15:34;;;;;;;5.97;1.00;;;11.00;99.90;;;;;;5013716;28;20229;-95
2020/12/20 12:18:06;;;;;;;6.97;1.10;;;11.00;99.90;;;;;;5031473;28;20221;-94
2020/12/20 12:20:37;;;;;;;6.40;1.03;;;11.00;99.90;;;;;;5012899;28;20693;-94
2020/12/20 12:23:21;;;;;;;5.80;1.13;;;11.00;99.90;;;;;;5031562;28;20216;-94
2020/12/20 12:25:54;;;;;;;5.73;1.20;;;11.00;99.90;;;;;;5015363;28;20220;-95
2020/12/20 12:28:27;;;;;;;5.73;1.37;;;10.90;99.90;;;;;;5035677;28;20209;-93
2020/12/20 12:31:08;;;;;;;5.70;1.10;;;10.90;99.90;;;;;;5031632;28;20208;-93
2020/12/20 12:33:39;;;;;;;5.30;1.00;;;10.90;99.90;;;;;;5025690;28;20205;-94
2020/12/20 12:36:16;;;;;;;8.93;1.77;;;10.90;99.90;;;;;;5029798;28;20212;-93
2020/12/20 12:38:56;;;;;;;7.37;1.30;;;10.90;99.90;;;;;;5031629;28;20205;-94
2020/12/20 12:41:33;;;;;;;6.83;1.70;;;10.80;99.90;;;;;;5032111;28;20244;-94
2020/12/20 12:44:07;;;;;;;6.70;1.77;;;10.80;99.90;;;;;;5033718;28;20281;-93
2020/12/20 12:46:49;;;;;;;6.43;1.23;;;10.80;99.90;;;;;;5038477;28;20204;-94
2020/12/20 12:49:29;;;;;;;7.30;1.63;;;10.80;99.90;;;;;;5032775;28;20213;-94
2020/12/20 12:52:08;;;;;;;4.97;1.30;;;10.70;99.90;;;;;;5033693;28;20213;-94
2020/12/20 12:54:39;;;;;;;9.67;1.93;;;10.70;99.90;;;;;;5032433;28;20232;-93
2020/12/20 12:57:10;;;;;;;5.90;1.10;;;10.60;99.90;;;;;;5014350;28;20312;-92
2020/12/20 12:59:42;;;;;;;9.47;1.53;;;10.60;99.90;;;;;;5031827;28;20237;-93
2020/12/20 13:02:25;;;;;;;10.23;1.70;;;10.60;99.90;;;;;;5032201;28;20210;-92
2020/12/20 13:04:57;;;;;;;5.10;1.63;;;10.60;99.90;;;;;;5033886;28;20201;-94
2020/12/20 13:07:33;;;;;;;14.13;2.00;;;10.60;99.90;;;;;;5037548;28;20208;-95
2020/12/20 13:10:04;;;;;;;9.50;1.73;;;10.60;99.90;;;;;;5033406;28;20198;-94
2020/12/20 13:12:35;;;;;;;9.37;1.80;;;10.60;99.90;;;;;;5038109;28;20201;-94
2020/12/20 13:15:19;;;;;;;7.40;1.40;;;10.60;99.90;;;;;;5038135;28;20204;-96
2020/12/20 13:17:58;;;;;;;9.80;1.53;;;10.60;99.90;;;;;;5038608;28;20186;-95
2020/12/20 13:20:29;;;;;;;8.07;1.80;;;10.60;99.90;;;;;;5020376;28;20263;-94
2020/12/20 13:23:03;;;;;;;6.73;1.80;;;10.60;99.90;;;;;;5037339;28;20237;-93
2020/12/20 13:25:42;;;;;;;10.00;1.47;;;10.60;99.90;;;;;;5037488;28;20232;-95
2020/12/20 13:28:12;;;;;;;9.40;1.87;;;10.60;99.90;;;;;;5037670;28;20259;-94
2020/12/20 13:30:43;;;;;;;7.50;1.70;;;10.60;99.90;;;;;;5037100;28;20217;-93
2020/12/20 13:33:15;;;;;;;9.37;1.60;;;10.60;99.90;;;;;;5037329;28;20205;-92
2020/12/20 13:35:46;;;;;;;6.87;1.97;;;10.60;99.90;;;;;;5037456;28;20206;-94
2020/12/20 13:38:20;;;;;;;9.37;2.13;;;10.60;99.90;;;;;;5032189;28;20209;-93
2020/12/20 13:43:37;;;;;;;8.33;2.00;;;10.60;99.90;;;;;;5030333;28;20576;-94
2020/12/20 13:46:09;;;;;;;5.83;1.70;;;10.60;99.90;;;;;;5030795;28;20535;-94
2020/12/20 13:48:43;;;;;;;14.27;2.20;;;10.50;99.90;;;;;;5030341;28;20672;-94
2020/12/20 13:51:33;;;;;;;8.27;1.80;;;10.50;99.90;;;;;;5010336;28;20281;-93
2020/12/20 13:54:05;;;;;;;7.97;2.13;;;10.50;99.90;;;;;;5011525;28;20218;-92
2020/12/20 13:56:36;;;;;;;7.00;1.60;;;10.50;99.90;;;;;;5029712;28;20224;-92
2020/12/20 13:59:07;;;;;;;10.23;1.97;;;10.60;99.90;;;;;;5028926;28;20273;-93
2020/12/20 14:01:46;;;;;;;9.23;1.90;;;10.50;99.90;;;;;;5012556;28;20259;-94
2020/12/20 14:04:21;;;;;;;13.10;2.10;;;10.50;99.90;;;;;;5028707;28;20292;-94
2020/12/20 14:06:55;;;;;;;6.37;1.80;;;10.50;99.90;;;;;;5043002;28;20251;-92
2020/12/20 14:09:27;;;;;;;8.73;1.70;;;10.50;99.90;;;;;;5030453;28;20218;-93
2020/12/20 14:12:00;;;;;;;9.23;2.27;;;10.50;99.90;;;;;;5029636;28;20646;-94
2020/12/20 14:14:30;;;;;;;13.50;2.00;;;10.50;99.90;;;;;;5031997;28;20209;-94
2020/12/20 14:17:02;;;;;;;13.43;1.93;;;10.50;99.90;;;;;;5031914;28;20217;-93
2020/12/20 14:19:35;;;;;;;11.63;1.77;;;10.50;99.90;;;;;;5028927;28;20217;-94
2020/12/20 14:22:07;;;;;;;5.57;1.30;;;10.50;99.90;;;;;;5012027;28;20205;-93
2020/12/20 14:24:39;;;;;;;12.67;2.53;;;10.50;99.90;;;;;;5028367;28;20308;-92
2020/12/20 14:27:10;;;;;;;11.43;2.57;;;10.50;99.90;;;;;;5029469;28;20248;-93
2020/12/20 14:29:41;;;;;;;12.07;2.23;;;10.50;99.90;;;;;;5029756;28;20197;-94
2020/12/20 14:32:14;;;;;;;9.43;1.80;;;10.50;99.90;;;;;;5028494;28;20206;-93
2020/12/20 14:35:10;;;;;;;9.50;1.80;;;10.50;99.90;;;;;;5011845;28;20208;-94
2020/12/20 14:37:41;;;;;;;9.63;2.00;;;10.50;99.90;;;;;;5028800;28;20205;-94
2020/12/20 14:40:16;;;;;;;8.13;2.60;;;10.40;99.90;;;;;;5007483;28;20716;-94
2020/12/20 14:42:47;;;;;;;7.37;1.73;;;10.40;99.90;;;;;;5028537;28;20228;-93
2020/12/20 14:45:18;;;;;;;6.20;1.30;;;10.40;99.90;;;;;;5028755;28;20245;-95
2020/12/20 14:47:49;;;;;;;6.53;1.47;;;10.40;99.90;;;;;;5023675;28;20244;-94
2020/12/20 14:50:21;;;;;;;7.87;1.50;;;10.40;99.90;;;;;;5030572;28;20214;-92
2020/12/20 14:52:56;;;;;;;13.63;2.13;;;10.40;99.90;;;;;;5031908;28;20209;-95
2020/12/20 14:55:27;;;;;;;10.83;2.20;;;10.40;99.90;;;;;;5030939;28;20228;-95
2020/12/20 14:58:11;;;;;;;8.83;1.70;;;10.40;99.90;;;;;;5029607;28;20629;-94
2020/12/20 15:00:44;;;;;;;9.10;1.70;;;10.40;99.90;;;;;;5017855;28;20242;-94
2020/12/20 15:03:17;;;;;;;8.77;1.97;;;10.40;99.90;;;;;;5028155;28;20217;-93
2020/12/20 15:05:51;;;;;;;8.43;1.40;;;10.40;99.90;;;;;;5030349;28;20236;-93
2020/12/20 15:08:23;;;;;;;11.77;1.90;;;10.40;99.90;;;;;;5012882;28;20206;-94
2020/12/20 15:10:54;;;;;;;10.97;1.97;;;10.40;99.90;;;;;;5028341;28;20224;-94
2020/12/20 15:13:25;;;;;;;10.63;2.17;;;10.30;99.90;;;;;;5030892;28;20205;-93
2020/12/20 15:16:03;;;;;;;10.13;1.33;;;10.30;99.90;;;;;;5027636;28;20221;-93
2020/12/20 15:18:35;;;;;;;7.83;2.10;;;10.30;99.90;;;;;;5027926;28;20207;-93
2020/12/20 15:21:08;;;;;;;7.40;1.70;;;10.30;99.90;;;;;;5025984;28;20225;-94
2020/12/20 15:26:27;;;;;;;8.67;1.90;;;10.30;99.90;;;;;;5035997;28;20265;-94
2020/12/20 15:28:59;;;;;;;12.43;1.40;;;10.30;99.90;;;;;;5029381;28;20202;-94
2020/12/20 15:34:21;;;;;;;7.23;1.40;;;10.30;99.90;;;;;;5022081;28;20232;-96
2020/12/20 15:37:02;;;;;;;10.93;1.63;;;10.30;99.90;;;;;;5043636;28;20257;-95
2020/12/20 15:39:34;;;;;;;6.70;1.23;;;10.30;99.90;;;;;;5037811;28;20201;-96
2020/12/20 15:42:06;;;;;;;9.67;1.67;;;10.20;99.90;;;;;;5032808;28;20288;-96
2020/12/20 15:44:43;;;;;;;5.87;1.30;;;10.20;99.90;;;;;;5029424;28;20233;-96
2020/12/20 15:47:16;;;;;;;5.83;1.70;;;10.20;99.90;;;;;;5029287;28;20177;-95
2020/12/20 15:49:58;;;;;;;8.97;1.20;;;10.20;99.90;;;;;;5022339;28;20222;-95
2020/12/20 15:52:43;;;;;;;12.93;2.07;;;10.20;99.90;;;;;;5023338;28;20220;-96
2020/12/20 15:55:18;;;;;;;7.43;1.70;;;10.20;99.90;;;;;;5028160;28;20239;-95
2020/12/20 15:58:01;;;;;;;10.83;2.27;;;10.20;99.90;;;;;;5025437;28;20221;-95
2020/12/20 16:00:33;;;;;;;3.63;1.10;;;10.20;99.90;;;;;;5021310;28;20249;-95
2020/12/20 16:03:28;;;;;;;8.43;1.30;;;10.10;99.90;;;;;;5035874;28;20217;-93
2020/12/20 16:06:07;;;;;;;5.57;1.13;;;10.10;99.90;;;;;;5037440;28;20205;-96
2020/12/20 16:08:40;;;;;;;4.57;1.07;;;10.10;99.90;;;;;;5038517;28;20207;-95
2020/12/20 16:11:15;;;;;;;5.33;1.53;;;10.10;99.90;;;;;;5020915;28;20269;-95
2020/12/20 16:13:46;;;;;;;8.17;1.23;;;10.10;99.90;;;;;;5034610;28;20200;-92
2020/12/20 16:19:35;;;;;;;5.80;1.60;;;10.10;99.90;;;;;;5044378;28;20315;-94
2020/12/20 16:22:08;;;;;;;6.10;1.37;;;10.10;99.90;;;;;;5029960;28;20233;-94
2020/12/20 16:24:58;;;;;;;9.03;1.50;;;10.10;99.90;;;;;;5029194;28;20260;-94
2020/12/20 16:27:31;;;;;;;7.03;1.33;;;10.10;99.90;;;;;;5030996;28;20209;-93
2020/12/20 16:30:23;;;;;;;6.40;1.30;;;10.10;99.90;;;;;;5020965;28;20309;-93
2020/12/20 16:33:00;;;;;;;8.47;1.87;;;10.10;99.90;;;;;;5030975;28;20197;-93
2020/12/20 16:35:36;;;;;;;6.83;1.40;;;10.10;99.90;;;;;;5023488;28;20202;-94
2020/12/20 16:38:08;;;;;;;7.57;1.50;;;10.10;99.90;;;;;;5024132;28;20561;-94
2020/12/20 16:40:40;;;;;;;11.07;1.93;;;10.10;99.90;;;;;;5022160;28;20257;-94
2020/12/20 16:45:49;;;;;;;8.20;1.20;;;10.10;99.90;;;;;;5716789;22;20235;-94